createdAt,value
2019-04-14T00:00:05.682Z,962.84
2019-04-14T00:15:41.930Z,962.82
2019-04-14T00:30:05.699Z,962.68
2019-04-14T00:45:04.980Z,962.68
2019-04-14T01:00:04.266Z,962.9
2019-04-14T01:15:05.150Z,962.79
2019-04-14T01:30:05.185Z,962.92
2019-04-14T01:45:05.881Z,963.03
2019-04-14T02:00:05.562Z,963.14
2019-04-14T02:15:04.956Z,963.22
2019-04-14T02:30:24.977Z,963.27
2019-04-14T02:47:03.189Z,963.22
2019-04-14T03:17:36.594Z,963.68
2019-04-14T03:33:31.037Z,963.79
2019-04-14T03:47:24.724Z,963.87
2019-04-14T04:00:23.184Z,964.3
2019-04-14T04:15:04.425Z,964.33
2019-04-14T04:30:06.212Z,964.54
2019-04-14T04:45:06.249Z,964.79
2019-04-14T05:00:05.134Z,964.68
2019-04-14T05:15:05.539Z,964.71
2019-04-14T05:30:05.106Z,964.68
2019-04-14T05:45:04.687Z,964.65
2019-04-14T06:00:06.154Z,964.73
2019-04-14T06:15:04.989Z,964.68
2019-04-14T06:30:04.917Z,964.54
2019-04-14T06:45:04.245Z,964.54
2019-04-14T07:00:05.003Z,964.62
2019-04-14T07:15:04.316Z,964.41
2019-04-14T07:30:04.817Z,964.35
2019-04-14T07:45:05.129Z,964.41
2019-04-14T08:00:04.496Z,964.44
2019-04-14T08:15:04.757Z,964.57
2019-04-14T08:30:04.734Z,964.65
2019-04-14T08:45:04.541Z,964.89
2019-04-14T09:00:04.306Z,964.71
2019-04-14T09:15:05.029Z,964.76
2019-04-14T09:30:04.998Z,964.65
2019-04-14T09:45:04.238Z,964.6
2019-04-14T10:00:04.414Z,964.73
2019-04-14T10:15:04.755Z,964.84
2019-04-14T10:30:04.228Z,964.89
2019-04-14T10:45:04.482Z,964.89
2019-04-14T11:00:04.651Z,964.79
2019-04-14T11:15:04.901Z,965.16
2019-04-14T11:30:04.346Z,964.54
2019-04-14T11:45:04.792Z,964.62
2019-04-14T12:00:05.063Z,964.89
2019-04-14T12:15:04.330Z,964.89
2019-04-14T12:30:04.354Z,965.08
2019-04-14T12:45:04.609Z,964.98
2019-04-14T13:00:04.386Z,964.95
2019-04-14T13:15:04.176Z,964.73
2019-04-14T13:30:04.641Z,964.95
2019-04-14T13:45:04.440Z,965
2019-04-14T14:00:04.766Z,965.06
2019-04-14T14:15:04.544Z,965.11
2019-04-14T14:30:04.537Z,965.11
2019-04-14T14:45:04.875Z,965.43
2019-04-14T15:00:04.201Z,965.51
2019-04-14T15:15:04.465Z,965.54
2019-04-14T15:30:05.001Z,965.81
2019-04-14T15:45:04.822Z,966.03
2019-04-14T16:00:05.069Z,966.14
2019-04-14T16:15:04.376Z,966.27
2019-04-14T16:30:04.832Z,966.38
2019-04-14T16:45:05.072Z,966.46
2019-04-14T17:00:04.886Z,966.46
2019-04-14T17:15:05.131Z,966.76
2019-04-14T17:30:04.606Z,966.86
2019-04-14T17:45:04.299Z,967.11
2019-04-14T18:00:04.652Z,967.16
2019-04-14T18:15:04.949Z,967.35
2019-04-14T18:30:04.957Z,967.54
2019-04-14T18:45:04.743Z,967.65
2019-04-14T19:00:04.994Z,967.84
2019-04-14T19:15:04.321Z,967.89
2019-04-14T19:30:04.908Z,968.24
2019-04-14T19:45:04.685Z,968.16
2019-04-14T20:00:04.992Z,968.35
2019-04-14T20:15:04.712Z,968.27
2019-04-14T20:30:04.253Z,968.35
2019-04-14T20:45:05.073Z,968.32
2019-04-14T21:00:04.940Z,968.43
2019-04-14T21:15:04.171Z,968.48
2019-04-14T21:30:04.744Z,968.57
2019-04-14T21:45:04.523Z,968.59
2019-04-14T22:00:04.774Z,968.38
2019-04-14T22:15:05.103Z,968.43
2019-04-14T22:30:05.081Z,968.46
2019-04-14T22:45:04.327Z,968.32
2019-04-14T23:00:05.116Z,968.38
2019-04-14T23:15:04.874Z,968.32
2019-04-14T23:30:05.359Z,968.21
2019-04-14T23:45:05.105Z,968.43
